sensor_id;sensor_type;location;lat;lon;timestamp;P1;durP1;ratioP1;P2;durP2;ratioP2
6825;SDS011;3451;52.476;13.316;2024-01-07T00:01:35;5.80;;;3.00;;
6825;SDS011;3451;52.476;13.316;2024-01-07T00:04:01;6.47;;;3.17;;
6825;SDS011;3451;52.476;13.316;2024-01-07T00:06:28;7.73;;;3.20;;
6825;SDS011;3451;52.476;13.316;2024-01-07T00:08:54;5.53;;;3.47;;
6825;SDS011;3451;52.476;13.316;2024-01-07T00:11:20;6.97;;;3.60;;
6825;SDS011;3451;52.476;13.316;2024-01-07T00:13:47;7.27;;;3.47;;
6825;SDS011;3451;52.476;13.316;2024-01-07T00:16:13;5.70;;;3.00;;
6825;SDS011;3451;52.476;13.316;2024-01-07T00:18:39;5.53;;;3.50;;
6825;SDS011;3451;52.476;13.316;2024-01-07T00:21:06;6.07;;;3.33;;
6825;SDS011;3451;52.476;13.316;2024-01-07T00:23:32;6.63;;;3.47;;
6825;SDS011;3451;52.476;13.316;2024-01-07T00:25:59;7.57;;;3.70;;
6825;SDS011;3451;52.476;13.316;2024-01-07T00:28:25;6.63;;;3.63;;
6825;SDS011;3451;52.476;13.316;2024-01-07T00:30:51;6.20;;;3.63;;
6825;SDS011;3451;52.476;13.316;2024-01-07T00:33:18;7.17;;;3.90;;
6825;SDS011;3451;52.476;13.316;2024-01-07T00:35:44;6.70;;;3.77;;
6825;SDS011;3451;52.476;13.316;2024-01-07T00:38:11;6.73;;;3.80;;
6825;SDS011;3451;52.476;13.316;2024-01-07T00:40:38;8.37;;;3.70;;
6825;SDS011;3451;52.476;13.316;2024-01-07T00:43:04;8.50;;;4.30;;
6825;SDS011;3451;52.476;13.316;2024-01-07T00:45:30;7.60;;;3.70;;
6825;SDS011;3451;52.476;13.316;2024-01-07T00:47:57;5.83;;;3.53;;
6825;SDS011;3451;52.476;13.316;2024-01-07T00:50:23;7.63;;;3.67;;
6825;SDS011;3451;52.476;13.316;2024-01-07T00:52:50;8.67;;;4.57;;
6825;SDS011;3451;52.476;13.316;2024-01-07T00:55:17;7.97;;;4.00;;
6825;SDS011;3451;52.476;13.316;2024-01-07T00:57:44;10.33;;;4.30;;
6825;SDS011;3451;52.476;13.316;2024-01-07T01:00:10;7.17;;;3.63;;
6825;SDS011;3451;52.476;13.316;2024-01-07T01:02:37;6.67;;;3.10;;
6825;SDS011;3451;52.476;13.316;2024-01-07T01:05:03;6.53;;;3.37;;
6825;SDS011;3451;52.476;13.316;2024-01-07T01:07:30;8.17;;;3.00;;
6825;SDS011;3451;52.476;13.316;2024-01-07T01:09:56;5.77;;;3.13;;
6825;SDS011;3451;52.476;13.316;2024-01-07T01:12:22;5.27;;;3.10;;
6825;SDS011;3451;52.476;13.316;2024-01-07T01:14:49;4.33;;;2.63;;
6825;SDS011;3451;52.476;13.316;2024-01-07T01:17:15;5.77;;;2.70;;
6825;SDS011;3451;52.476;13.316;2024-01-07T01:19:41;5.90;;;3.10;;
6825;SDS011;3451;52.476;13.316;2024-01-07T01:22:08;4.93;;;2.70;;
6825;SDS011;3451;52.476;13.316;2024-01-07T01:24:34;4.63;;;2.67;;
6825;SDS011;3451;52.476;13.316;2024-01-07T01:27:00;5.77;;;2.80;;
6825;SDS011;3451;52.476;13.316;2024-01-07T01:29:27;4.93;;;2.50;;
6825;SDS011;3451;52.476;13.316;2024-01-07T01:31:54;4.83;;;2.23;;
6825;SDS011;3451;52.476;13.316;2024-01-07T01:34:20;3.17;;;2.00;;
6825;SDS011;3451;52.476;13.316;2024-01-07T01:36:46;5.10;;;2.47;;
6825;SDS011;3451;52.476;13.316;2024-01-07T01:39:13;4.20;;;2.20;;
6825;SDS011;3451;52.476;13.316;2024-01-07T01:41:39;4.73;;;2.77;;
6825;SDS011;3451;52.476;13.316;2024-01-07T01:44:06;4.30;;;2.60;;
6825;SDS011;3451;52.476;13.316;2024-01-07T01:46:32;4.97;;;2.70;;
6825;SDS011;3451;52.476;13.316;2024-01-07T01:48:59;4.47;;;2.73;;
6825;SDS011;3451;52.476;13.316;2024-01-07T01:51:25;6.10;;;2.70;;
6825;SDS011;3451;52.476;13.316;2024-01-07T01:53:52;6.30;;;2.90;;
6825;SDS011;3451;52.476;13.316;2024-01-07T01:56:20;5.63;;;2.57;;
6825;SDS011;3451;52.476;13.316;2024-01-07T01:58:47;4.47;;;2.63;;
6825;SDS011;3451;52.476;13.316;2024-01-07T02:01:14;5.00;;;2.70;;
6825;SDS011;3451;52.476;13.316;2024-01-07T02:03:40;4.57;;;2.70;;
6825;SDS011;3451;52.476;13.316;2024-01-07T02:06:06;4.07;;;2.70;;
6825;SDS011;3451;52.476;13.316;2024-01-07T02:08:33;3.80;;;2.63;;
6825;SDS011;3451;52.476;13.316;2024-01-07T02:11:13;5.40;;;2.67;;
6825;SDS011;3451;52.476;13.316;2024-01-07T02:13:39;4.63;;;2.60;;
6825;SDS011;3451;52.476;13.316;2024-01-07T02:16:06;3.67;;;2.43;;
6825;SDS011;3451;52.476;13.316;2024-01-07T02:18:32;4.67;;;3.00;;
6825;SDS011;3451;52.476;13.316;2024-01-07T02:20:59;3.80;;;2.53;;
6825;SDS011;3451;52.476;13.316;2024-01-07T02:23:25;4.70;;;2.80;;
6825;SDS011;3451;52.476;13.316;2024-01-07T02:25:51;5.43;;;2.80;;
6825;SDS011;3451;52.476;13.316;2024-01-07T02:28:17;3.30;;;2.13;;
6825;SDS011;3451;52.476;13.316;2024-01-07T02:30:44;5.53;;;2.60;;
6825;SDS011;3451;52.476;13.316;2024-01-07T02:33:10;5.27;;;2.97;;
6825;SDS011;3451;52.476;13.316;2024-01-07T02:35:37;3.67;;;2.10;;
6825;SDS011;3451;52.476;13.316;2024-01-07T02:38:03;3.17;;;2.30;;
6825;SDS011;3451;52.476;13.316;2024-01-07T02:40:29;4.00;;;2.20;;
6825;SDS011;3451;52.476;13.316;2024-01-07T02:42:56;4.03;;;2.20;;
6825;SDS011;3451;52.476;13.316;2024-01-07T02:45:23;6.63;;;2.40;;
6825;SDS011;3451;52.476;13.316;2024-01-07T02:47:49;4.10;;;2.23;;
6825;SDS011;3451;52.476;13.316;2024-01-07T02:50:16;3.57;;;2.07;;
6825;SDS011;3451;52.476;13.316;2024-01-07T02:52:43;4.50;;;2.20;;
6825;SDS011;3451;52.476;13.316;2024-01-07T02:55:09;5.23;;;2.43;;
6825;SDS011;3451;52.476;13.316;2024-01-07T02:57:35;4.03;;;2.53;;
6825;SDS011;3451;52.476;13.316;2024-01-07T03:00:02;4.87;;;2.40;;
6825;SDS011;3451;52.476;13.316;2024-01-07T03:02:29;4.67;;;2.10;;
6825;SDS011;3451;52.476;13.316;2024-01-07T03:04:55;8.27;;;2.50;;
6825;SDS011;3451;52.476;13.316;2024-01-07T03:07:21;4.13;;;2.33;;
6825;SDS011;3451;52.476;13.316;2024-01-07T03:09:49;3.67;;;2.40;;
6825;SDS011;3451;52.476;13.316;2024-01-07T03:12:15;3.07;;;2.03;;
6825;SDS011;3451;52.476;13.316;2024-01-07T03:14:42;5.20;;;2.37;;
6825;SDS011;3451;52.476;13.316;2024-01-07T03:17:09;2.63;;;2.17;;
6825;SDS011;3451;52.476;13.316;2024-01-07T03:19:37;4.00;;;2.27;;
6825;SDS011;3451;52.476;13.316;2024-01-07T03:22:03;4.80;;;2.40;;
6825;SDS011;3451;52.476;13.316;2024-01-07T03:24:30;4.17;;;2.43;;
6825;SDS011;3451;52.476;13.316;2024-01-07T03:26:56;2.90;;;2.20;;
6825;SDS011;3451;52.476;13.316;2024-01-07T03:29:22;4.37;;;2.17;;
6825;SDS011;3451;52.476;13.316;2024-01-07T03:31:49;4.27;;;2.67;;
6825;SDS011;3451;52.476;13.316;2024-01-07T03:34:16;2.77;;;1.93;;
6825;SDS011;3451;52.476;13.316;2024-01-07T03:36:43;3.20;;;2.30;;
6825;SDS011;3451;52.476;13.316;2024-01-07T03:39:09;4.00;;;2.40;;
6825;SDS011;3451;52.476;13.316;2024-01-07T03:41:35;4.03;;;2.50;;
6825;SDS011;3451;52.476;13.316;2024-01-07T03:44:02;3.03;;;2.27;;
6825;SDS011;3451;52.476;13.316;2024-01-07T03:46:28;3.17;;;2.33;;
6825;SDS011;3451;52.476;13.316;2024-01-07T03:48:54;3.97;;;2.67;;
6825;SDS011;3451;52.476;13.316;2024-01-07T03:51:21;4.87;;;2.57;;
6825;SDS011;3451;52.476;13.316;2024-01-07T03:53:47;4.93;;;2.50;;
6825;SDS011;3451;52.476;13.316;2024-01-07T03:56:13;5.33;;;2.80;;
6825;SDS011;3451;52.476;13.316;2024-01-07T03:58:40;6.23;;;3.03;;
6825;SDS011;3451;52.476;13.316;2024-01-07T04:01:06;2.93;;;2.27;;
6825;SDS011;3451;52.476;13.316;2024-01-07T04:03:33;3.80;;;2.60;;
6825;SDS011;3451;52.476;13.316;2024-01-07T04:05:59;4.80;;;2.90;;
6825;SDS011;3451;52.476;13.316;2024-01-07T04:08:26;5.53;;;2.80;;
6825;SDS011;3451;52.476;13.316;2024-01-07T04:10:52;4.03;;;2.50;;
6825;SDS011;3451;52.476;13.316;2024-01-07T04:13:18;4.27;;;2.40;;
6825;SDS011;3451;52.476;13.316;2024-01-07T04:15:45;5.33;;;2.80;;
6825;SDS011;3451;52.476;13.316;2024-01-07T04:18:11;5.90;;;2.70;;
6825;SDS011;3451;52.476;13.316;2024-01-07T04:20:38;3.07;;;2.20;;
6825;SDS011;3451;52.476;13.316;2024-01-07T04:23:04;3.73;;;2.43;;
6825;SDS011;3451;52.476;13.316;2024-01-07T04:25:30;4.43;;;2.17;;
6825;SDS011;3451;52.476;13.316;2024-01-07T04:27:56;3.30;;;2.20;;
6825;SDS011;3451;52.476;13.316;2024-01-07T04:30:23;3.70;;;2.23;;
6825;SDS011;3451;52.476;13.316;2024-01-07T04:32:49;5.07;;;2.43;;
6825;SDS011;3451;52.476;13.316;2024-01-07T04:35:16;4.50;;;2.43;;
6825;SDS011;3451;52.476;13.316;2024-01-07T04:37:42;4.17;;;2.53;;
6825;SDS011;3451;52.476;13.316;2024-01-07T04:40:08;5.27;;;2.50;;
6825;SDS011;3451;52.476;13.316;2024-01-07T04:42:35;3.23;;;2.00;;
6825;SDS011;3451;52.476;13.316;2024-01-07T04:45:02;4.00;;;2.40;;
6825;SDS011;3451;52.476;13.316;2024-01-07T04:47:32;5.70;;;2.83;;
6825;SDS011;3451;52.476;13.316;2024-01-07T04:50:00;5.03;;;2.20;;
6825;SDS011;3451;52.476;13.316;2024-01-07T04:52:27;3.93;;;2.13;;
6825;SDS011;3451;52.476;13.316;2024-01-07T04:54:53;3.93;;;2.20;;
6825;SDS011;3451;52.476;13.316;2024-01-07T04:57:20;3.57;;;2.30;;
6825;SDS011;3451;52.476;13.316;2024-01-07T04:59:47;4.13;;;2.67;;
6825;SDS011;3451;52.476;13.316;2024-01-07T05:02:14;3.70;;;2.40;;
6825;SDS011;3451;52.476;13.316;2024-01-07T05:04:40;3.43;;;2.17;;
6825;SDS011;3451;52.476;13.316;2024-01-07T05:07:06;4.07;;;2.13;;
6825;SDS011;3451;52.476;13.316;2024-01-07T05:09:33;4.10;;;2.37;;
6825;SDS011;3451;52.476;13.316;2024-01-07T05:11:59;2.80;;;1.90;;
6825;SDS011;3451;52.476;13.316;2024-01-07T05:14:26;4.47;;;2.23;;
6825;SDS011;3451;52.476;13.316;2024-01-07T05:16:53;3.90;;;2.37;;
6825;SDS011;3451;52.476;13.316;2024-01-07T05:19:19;3.80;;;2.43;;
6825;SDS011;3451;52.476;13.316;2024-01-07T05:21:45;4.53;;;2.60;;
6825;SDS011;3451;52.476;13.316;2024-01-07T05:24:12;5.33;;;2.20;;
6825;SDS011;3451;52.476;13.316;2024-01-07T05:26:38;3.77;;;2.30;;
6825;SDS011;3451;52.476;13.316;2024-01-07T05:29:05;3.40;;;2.27;;
6825;SDS011;3451;52.476;13.316;2024-01-07T05:31:32;4.20;;;2.20;;
6825;SDS011;3451;52.476;13.316;2024-01-07T05:33:58;3.67;;;2.23;;
6825;SDS011;3451;52.476;13.316;2024-01-07T05:36:25;4.73;;;2.30;;
6825;SDS011;3451;52.476;13.316;2024-01-07T05:38:51;3.07;;;2.00;;
6825;SDS011;3451;52.476;13.316;2024-01-07T05:41:17;5.97;;;2.40;;
6825;SDS011;3451;52.476;13.316;2024-01-07T05:43:44;7.00;;;2.50;;
6825;SDS011;3451;52.476;13.316;2024-01-07T05:46:10;6.90;;;2.60;;
6825;SDS011;3451;52.476;13.316;2024-01-07T05:48:45;4.30;;;2.30;;
6825;SDS011;3451;52.476;13.316;2024-01-07T05:51:12;3.87;;;2.63;;
6825;SDS011;3451;52.476;13.316;2024-01-07T05:53:41;3.63;;;2.30;;
6825;SDS011;3451;52.476;13.316;2024-01-07T05:56:08;3.30;;;2.57;;
6825;SDS011;3451;52.476;13.316;2024-01-07T05:58:34;4.37;;;2.70;;
6825;SDS011;3451;52.476;13.316;2024-01-07T06:01:01;4.07;;;2.47;;
6825;SDS011;3451;52.476;13.316;2024-01-07T06:03:27;4.00;;;2.60;;
6825;SDS011;3451;52.476;13.316;2024-01-07T06:05:53;5.53;;;2.90;;
6825;SDS011;3451;52.476;13.316;2024-01-07T06:08:20;4.80;;;2.90;;
6825;SDS011;3451;52.476;13.316;2024-01-07T06:10:46;5.93;;;2.83;;
6825;SDS011;3451;52.476;13.316;2024-01-07T06:13:13;4.37;;;2.67;;
6825;SDS011;3451;52.476;13.316;2024-01-07T06:15:39;5.10;;;3.17;;
6825;SDS011;3451;52.476;13.316;2024-01-07T06:18:05;5.43;;;3.10;;
6825;SDS011;3451;52.476;13.316;2024-01-07T06:20:32;4.33;;;2.77;;
6825;SDS011;3451;52.476;13.316;2024-01-07T06:22:58;5.53;;;2.90;;
6825;SDS011;3451;52.476;13.316;2024-01-07T06:25:24;3.90;;;2.67;;
6825;SDS011;3451;52.476;13.316;2024-01-07T06:27:52;4.67;;;2.93;;
6825;SDS011;3451;52.476;13.316;2024-01-07T06:30:19;5.10;;;2.77;;
6825;SDS011;3451;52.476;13.316;2024-01-07T06:32:45;4.23;;;2.63;;
6825;SDS011;3451;52.476;13.316;2024-01-07T06:35:12;5.20;;;2.90;;
6825;SDS011;3451;52.476;13.316;2024-01-07T06:37:38;4.53;;;3.27;;
6825;SDS011;3451;52.476;13.316;2024-01-07T06:40:04;5.17;;;3.37;;
6825;SDS011;3451;52.476;13.316;2024-01-07T06:42:31;7.47;;;2.90;;
6825;SDS011;3451;52.476;13.316;2024-01-07T06:44:57;4.53;;;2.90;;
6825;SDS011;3451;52.476;13.316;2024-01-07T06:47:23;5.03;;;3.07;;
6825;SDS011;3451;52.476;13.316;2024-01-07T06:49:50;5.17;;;3.10;;
6825;SDS011;3451;52.476;13.316;2024-01-07T06:52:16;4.57;;;2.77;;
6825;SDS011;3451;52.476;13.316;2024-01-07T06:54:42;5.30;;;2.67;;
6825;SDS011;3451;52.476;13.316;2024-01-07T06:57:09;5.53;;;3.30;;
6825;SDS011;3451;52.476;13.316;2024-01-07T06:59:35;6.67;;;2.97;;
6825;SDS011;3451;52.476;13.316;2024-01-07T07:02:02;4.27;;;3.03;;
6825;SDS011;3451;52.476;13.316;2024-01-07T07:04:28;5.07;;;3.30;;
6825;SDS011;3451;52.476;13.316;2024-01-07T07:06:55;7.17;;;2.80;;
6825;SDS011;3451;52.476;13.316;2024-01-07T07:09:23;5.33;;;3.53;;
6825;SDS011;3451;52.476;13.316;2024-01-07T07:11:49;5.17;;;2.80;;
6825;SDS011;3451;52.476;13.316;2024-01-07T07:14:16;4.53;;;2.60;;
6825;SDS011;3451;52.476;13.316;2024-01-07T07:16:42;3.97;;;2.70;;
6825;SDS011;3451;52.476;13.316;2024-01-07T07:19:08;4.67;;;3.00;;
6825;SDS011;3451;52.476;13.316;2024-01-07T07:21:40;4.10;;;2.83;;
6825;SDS011;3451;52.476;13.316;2024-01-07T07:24:07;5.43;;;3.20;;
6825;SDS011;3451;52.476;13.316;2024-01-07T07:26:33;4.67;;;2.87;;
6825;SDS011;3451;52.476;13.316;2024-01-07T07:29:02;5.27;;;2.90;;
6825;SDS011;3451;52.476;13.316;2024-01-07T07:31:28;5.70;;;3.27;;
6825;SDS011;3451;52.476;13.316;2024-01-07T07:33:55;4.67;;;2.57;;
6825;SDS011;3451;52.476;13.316;2024-01-07T07:36:21;5.23;;;3.00;;
6825;SDS011;3451;52.476;13.316;2024-01-07T07:38:47;6.10;;;3.03;;
6825;SDS011;3451;52.476;13.316;2024-01-07T07:41:14;4.10;;;2.80;;
6825;SDS011;3451;52.476;13.316;2024-01-07T07:43:40;4.87;;;2.83;;
6825;SDS011;3451;52.476;13.316;2024-01-07T07:46:06;5.30;;;2.53;;
6825;SDS011;3451;52.476;13.316;2024-01-07T07:48:33;4.87;;;2.67;;
6825;SDS011;3451;52.476;13.316;2024-01-07T07:50:59;4.80;;;2.93;;
6825;SDS011;3451;52.476;13.316;2024-01-07T07:53:25;5.00;;;2.63;;
6825;SDS011;3451;52.476;13.316;2024-01-07T07:55:52;4.10;;;2.30;;
6825;SDS011;3451;52.476;13.316;2024-01-07T07:58:19;3.70;;;2.07;;
6825;SDS011;3451;52.476;13.316;2024-01-07T08:00:46;3.67;;;2.20;;
6825;SDS011;3451;52.476;13.316;2024-01-07T08:03:13;4.17;;;2.60;;
6825;SDS011;3451;52.476;13.316;2024-01-07T08:05:39;4.10;;;2.67;;
6825;SDS011;3451;52.476;13.316;2024-01-07T08:08:08;4.80;;;2.50;;
6825;SDS011;3451;52.476;13.316;2024-01-07T08:10:34;3.80;;;2.40;;
6825;SDS011;3451;52.476;13.316;2024-01-07T08:13:01;5.90;;;2.73;;
6825;SDS011;3451;52.476;13.316;2024-01-07T08:15:27;3.93;;;2.70;;
6825;SDS011;3451;52.476;13.316;2024-01-07T08:17:54;4.57;;;2.93;;
6825;SDS011;3451;52.476;13.316;2024-01-07T08:20:20;4.37;;;2.90;;
6825;SDS011;3451;52.476;13.316;2024-01-07T08:22:46;4.40;;;2.77;;
6825;SDS011;3451;52.476;13.316;2024-01-07T08:25:13;6.37;;;2.80;;
6825;SDS011;3451;52.476;13.316;2024-01-07T08:27:42;5.47;;;3.20;;
6825;SDS011;3451;52.476;13.316;2024-01-07T08:30:10;5.07;;;3.17;;
6825;SDS011;3451;52.476;13.316;2024-01-07T08:32:38;4.87;;;2.97;;
6825;SDS011;3451;52.476;13.316;2024-01-07T08:35:04;6.37;;;2.93;;
6825;SDS011;3451;52.476;13.316;2024-01-07T08:37:31;4.53;;;2.73;;
6825;SDS011;3451;52.476;13.316;2024-01-07T08:39:57;4.93;;;3.20;;
6825;SDS011;3451;52.476;13.316;2024-01-07T08:42:24;4.70;;;2.77;;
6825;SDS011;3451;52.476;13.316;2024-01-07T08:44:54;5.33;;;3.20;;
6825;SDS011;3451;52.476;13.316;2024-01-07T08:47:21;4.53;;;2.93;;
6825;SDS011;3451;52.476;13.316;2024-01-07T08:49:47;4.87;;;2.77;;
6825;SDS011;3451;52.476;13.316;2024-01-07T08:52:14;4.47;;;2.80;;
6825;SDS011;3451;52.476;13.316;2024-01-07T08:54:40;5.17;;;3.13;;
6825;SDS011;3451;52.476;13.316;2024-01-07T08:57:06;5.27;;;2.90;;
6825;SDS011;3451;52.476;13.316;2024-01-07T08:59:34;4.03;;;3.00;;
6825;SDS011;3451;52.476;13.316;2024-01-07T09:02:01;4.37;;;2.83;;
6825;SDS011;3451;52.476;13.316;2024-01-07T09:04:28;3.77;;;3.00;;
6825;SDS011;3451;52.476;13.316;2024-01-07T09:06:55;4.73;;;2.97;;
6825;SDS011;3451;52.476;13.316;2024-01-07T09:09:21;5.27;;;2.73;;
6825;SDS011;3451;52.476;13.316;2024-01-07T09:11:49;4.77;;;2.57;;
6825;SDS011;3451;52.476;13.316;2024-01-07T09:14:15;6.23;;;3.00;;
6825;SDS011;3451;52.476;13.316;2024-01-07T09:16:41;5.07;;;2.87;;
6825;SDS011;3451;52.476;13.316;2024-01-07T09:19:08;4.17;;;3.07;;
6825;SDS011;3451;52.476;13.316;2024-01-07T09:21:38;4.73;;;2.83;;
6825;SDS011;3451;52.476;13.316;2024-01-07T09:24:05;5.63;;;3.30;;
6825;SDS011;3451;52.476;13.316;2024-01-07T09:26:31;5.60;;;3.20;;
6825;SDS011;3451;52.476;13.316;2024-01-07T09:28:57;4.93;;;3.50;;
6825;SDS011;3451;52.476;13.316;2024-01-07T09:31:24;7.57;;;3.40;;
6825;SDS011;3451;52.476;13.316;2024-01-07T09:33:50;5.77;;;3.50;;
6825;SDS011;3451;52.476;13.316;2024-01-07T09:36:17;6.60;;;3.33;;
6825;SDS011;3451;52.476;13.316;2024-01-07T09:38:55;6.53;;;3.53;;
6825;SDS011;3451;52.476;13.316;2024-01-07T09:41:21;6.73;;;3.50;;
6825;SDS011;3451;52.476;13.316;2024-01-07T09:43:48;6.67;;;4.10;;
6825;SDS011;3451;52.476;13.316;2024-01-07T09:46:14;7.33;;;4.17;;
6825;SDS011;3451;52.476;13.316;2024-01-07T09:48:41;8.30;;;4.60;;
6825;SDS011;3451;52.476;13.316;2024-01-07T09:51:09;7.27;;;3.83;;
6825;SDS011;3451;52.476;13.316;2024-01-07T09:53:38;7.40;;;4.13;;
6825;SDS011;3451;52.476;13.316;2024-01-07T09:56:07;8.70;;;4.50;;
6825;SDS011;3451;52.476;13.316;2024-01-07T09:58:37;6.73;;;3.77;;
6825;SDS011;3451;52.476;13.316;2024-01-07T10:01:04;12.70;;;4.70;;
6825;SDS011;3451;52.476;13.316;2024-01-07T10:03:31;11.33;;;4.57;;
6825;SDS011;3451;52.476;13.316;2024-01-07T10:05:57;7.07;;;4.97;;
6825;SDS011;3451;52.476;13.316;2024-01-07T10:08:24;9.30;;;4.10;;
6825;SDS011;3451;52.476;13.316;2024-01-07T10:10:54;7.13;;;4.00;;
6825;SDS011;3451;52.476;13.316;2024-01-07T10:13:20;7.37;;;4.30;;
6825;SDS011;3451;52.476;13.316;2024-01-07T10:15:48;8.00;;;4.87;;
6825;SDS011;3451;52.476;13.316;2024-01-07T10:18:15;9.17;;;5.20;;
6825;SDS011;3451;52.476;13.316;2024-01-07T10:20:41;10.60;;;4.67;;
6825;SDS011;3451;52.476;13.316;2024-01-07T10:23:09;11.27;;;6.70;;
6825;SDS011;3451;52.476;13.316;2024-01-07T10:25:35;9.87;;;5.50;;
6825;SDS011;3451;52.476;13.316;2024-01-07T10:28:03;11.47;;;6.10;;
6825;SDS011;3451;52.476;13.316;2024-01-07T10:30:29;9.87;;;4.83;;
6825;SDS011;3451;52.476;13.316;2024-01-07T10:32:59;10.53;;;4.77;;
6825;SDS011;3451;52.476;13.316;2024-01-07T10:35:35;8.47;;;5.23;;
6825;SDS011;3451;52.476;13.316;2024-01-07T10:38:02;8.37;;;5.30;;
6825;SDS011;3451;52.476;13.316;2024-01-07T10:40:29;9.97;;;5.63;;
6825;SDS011;3451;52.476;13.316;2024-01-07T10:42:56;10.90;;;5.90;;
6825;SDS011;3451;52.476;13.316;2024-01-07T10:45:23;8.57;;;5.30;;
6825;SDS011;3451;52.476;13.316;2024-01-07T10:47:51;9.97;;;5.80;;
6825;SDS011;3451;52.476;13.316;2024-01-07T10:50:21;12.70;;;7.40;;
6825;SDS011;3451;52.476;13.316;2024-01-07T10:52:49;11.37;;;6.63;;
6825;SDS011;3451;52.476;13.316;2024-01-07T10:55:17;11.40;;;5.87;;
6825;SDS011;3451;52.476;13.316;2024-01-07T10:57:47;10.47;;;6.23;;
6825;SDS011;3451;52.476;13.316;2024-01-07T11:00:16;11.20;;;6.53;;
6825;SDS011;3451;52.476;13.316;2024-01-07T11:02:51;8.17;;;4.93;;
6825;SDS011;3451;52.476;13.316;2024-01-07T11:08:25;11.93;;;5.93;;
6825;SDS011;3451;52.476;13.316;2024-01-07T11:10:55;10.43;;;5.30;;
6825;SDS011;3451;52.476;13.316;2024-01-07T11:13:31;11.27;;;6.70;;
6825;SDS011;3451;52.476;13.316;2024-01-07T11:15:58;10.27;;;5.97;;
6825;SDS011;3451;52.476;13.316;2024-01-07T11:18:24;8.77;;;5.40;;
6825;SDS011;3451;52.476;13.316;2024-01-07T11:20:58;8.57;;;5.07;;
6825;SDS011;3451;52.476;13.316;2024-01-07T11:23:31;7.57;;;5.10;;
6825;SDS011;3451;52.476;13.316;2024-01-07T11:25:59;9.47;;;5.93;;
6825;SDS011;3451;52.476;13.316;2024-01-07T11:31:10;10.13;;;5.40;;
6825;SDS011;3451;52.476;13.316;2024-01-07T11:33:37;7.43;;;4.73;;
6825;SDS011;3451;52.476;13.316;2024-01-07T11:36:06;11.00;;;5.03;;
6825;SDS011;3451;52.476;13.316;2024-01-07T11:38:34;7.73;;;5.40;;
6825;SDS011;3451;52.476;13.316;2024-01-07T11:41:00;6.87;;;4.47;;
6825;SDS011;3451;52.476;13.316;2024-01-07T11:43:27;7.97;;;5.07;;
6825;SDS011;3451;52.476;13.316;2024-01-07T11:45:53;9.97;;;5.23;;
6825;SDS011;3451;52.476;13.316;2024-01-07T11:48:20;8.43;;;4.90;;
6825;SDS011;3451;52.476;13.316;2024-01-07T11:50:47;7.53;;;4.67;;
6825;SDS011;3451;52.476;13.316;2024-01-07T11:53:15;7.27;;;4.63;;
6825;SDS011;3451;52.476;13.316;2024-01-07T11:55:42;7.87;;;5.20;;
6825;SDS011;3451;52.476;13.316;2024-01-07T11:58:08;8.83;;;5.17;;
6825;SDS011;3451;52.476;13.316;2024-01-07T12:00:34;8.20;;;5.03;;
6825;SDS011;3451;52.476;13.316;2024-01-07T12:03:01;8.13;;;5.50;;
6825;SDS011;3451;52.476;13.316;2024-01-07T12:05:28;10.77;;;5.50;;
6825;SDS011;3451;52.476;13.316;2024-01-07T12:07:54;7.43;;;4.40;;
6825;SDS011;3451;52.476;13.316;2024-01-07T12:10:21;11.57;;;5.33;;
6825;SDS011;3451;52.476;13.316;2024-01-07T12:12:47;7.27;;;4.80;;
6825;SDS011;3451;52.476;13.316;2024-01-07T12:15:14;6.97;;;4.33;;
6825;SDS011;3451;52.476;13.316;2024-01-07T12:17:41;8.13;;;4.43;;
6825;SDS011;3451;52.476;13.316;2024-01-07T12:20:07;8.60;;;4.17;;
6825;SDS011;3451;52.476;13.316;2024-01-07T12:22:40;6.47;;;4.17;;
6825;SDS011;3451;52.476;13.316;2024-01-07T12:25:06;8.80;;;4.30;;
6825;SDS011;3451;52.476;13.316;2024-01-07T12:27:33;7.07;;;4.43;;
6825;SDS011;3451;52.476;13.316;2024-01-07T12:30:00;5.23;;;3.63;;
6825;SDS011;3451;52.476;13.316;2024-01-07T12:32:27;6.40;;;4.07;;
6825;SDS011;3451;52.476;13.316;2024-01-07T12:34:56;7.70;;;3.80;;
6825;SDS011;3451;52.476;13.316;2024-01-07T12:37:22;6.50;;;4.23;;
6825;SDS011;3451;52.476;13.316;2024-01-07T12:39:50;7.53;;;4.17;;
6825;SDS011;3451;52.476;13.316;2024-01-07T12:42:17;6.33;;;4.03;;
6825;SDS011;3451;52.476;13.316;2024-01-07T12:44:44;7.10;;;4.07;;
6825;SDS011;3451;52.476;13.316;2024-01-07T12:47:10;5.77;;;3.90;;
6825;SDS011;3451;52.476;13.316;2024-01-07T12:49:37;5.73;;;3.87;;
6825;SDS011;3451;52.476;13.316;2024-01-07T12:52:03;9.20;;;5.00;;
6825;SDS011;3451;52.476;13.316;2024-01-07T12:54:30;7.40;;;4.50;;
6825;SDS011;3451;52.476;13.316;2024-01-07T12:56:56;8.20;;;3.80;;
6825;SDS011;3451;52.476;13.316;2024-01-07T12:59:22;6.17;;;3.70;;
6825;SDS011;3451;52.476;13.316;2024-01-07T13:01:49;7.00;;;3.80;;
6825;SDS011;3451;52.476;13.316;2024-01-07T13:04:18;6.07;;;3.43;;
6825;SDS011;3451;52.476;13.316;2024-01-07T13:06:46;5.50;;;3.90;;
6825;SDS011;3451;52.476;13.316;2024-01-07T13:09:12;5.63;;;3.87;;
6825;SDS011;3451;52.476;13.316;2024-01-07T13:11:39;6.80;;;3.97;;
6825;SDS011;3451;52.476;13.316;2024-01-07T13:14:05;6.03;;;3.50;;
6825;SDS011;3451;52.476;13.316;2024-01-07T13:16:32;9.00;;;3.80;;
6825;SDS011;3451;52.476;13.316;2024-01-07T13:18:58;5.73;;;3.67;;
6825;SDS011;3451;52.476;13.316;2024-01-07T13:21:25;5.10;;;3.80;;
6825;SDS011;3451;52.476;13.316;2024-01-07T13:23:51;9.17;;;4.03;;
6825;SDS011;3451;52.476;13.316;2024-01-07T13:26:17;4.23;;;3.07;;
6825;SDS011;3451;52.476;13.316;2024-01-07T13:28:44;6.30;;;3.80;;
6825;SDS011;3451;52.476;13.316;2024-01-07T13:31:10;5.13;;;3.47;;
6825;SDS011;3451;52.476;13.316;2024-01-07T13:33:39;5.00;;;3.40;;
6825;SDS011;3451;52.476;13.316;2024-01-07T13:36:06;6.67;;;3.10;;
6825;SDS011;3451;52.476;13.316;2024-01-07T13:38:36;6.67;;;3.70;;
6825;SDS011;3451;52.476;13.316;2024-01-07T13:41:04;4.93;;;3.30;;
6825;SDS011;3451;52.476;13.316;2024-01-07T13:43:30;10.03;;;5.60;;
6825;SDS011;3451;52.476;13.316;2024-01-07T13:45:57;7.37;;;4.60;;
6825;SDS011;3451;52.476;13.316;2024-01-07T13:48:23;7.00;;;4.47;;
6825;SDS011;3451;52.476;13.316;2024-01-07T13:50:50;7.37;;;4.70;;
6825;SDS011;3451;52.476;13.316;2024-01-07T13:53:16;8.17;;;3.57;;
6825;SDS011;3451;52.476;13.316;2024-01-07T13:55:43;4.67;;;3.43;;
6825;SDS011;3451;52.476;13.316;2024-01-07T13:58:11;5.60;;;3.77;;
6825;SDS011;3451;52.476;13.316;2024-01-07T14:00:37;8.43;;;3.60;;
6825;SDS011;3451;52.476;13.316;2024-01-07T14:03:04;5.40;;;3.60;;
6825;SDS011;3451;52.476;13.316;2024-01-07T14:05:30;6.03;;;3.47;;
6825;SDS011;3451;52.476;13.316;2024-01-07T14:07:57;5.23;;;2.73;;
6825;SDS011;3451;52.476;13.316;2024-01-07T14:10:23;6.23;;;3.20;;
6825;SDS011;3451;52.476;13.316;2024-01-07T14:12:50;6.80;;;3.40;;
6825;SDS011;3451;52.476;13.316;2024-01-07T14:15:16;6.80;;;3.27;;
6825;SDS011;3451;52.476;13.316;2024-01-07T14:17:44;5.37;;;3.63;;
6825;SDS011;3451;52.476;13.316;2024-01-07T14:20:11;7.60;;;3.20;;
6825;SDS011;3451;52.476;13.316;2024-01-07T14:22:38;5.17;;;3.07;;
6825;SDS011;3451;52.476;13.316;2024-01-07T14:25:04;6.13;;;3.07;;
6825;SDS011;3451;52.476;13.316;2024-01-07T14:27:31;6.77;;;3.10;;
6825;SDS011;3451;52.476;13.316;2024-01-07T14:29:57;4.40;;;3.30;;
6825;SDS011;3451;52.476;13.316;2024-01-07T14:32:23;4.40;;;3.30;;
6825;SDS011;3451;52.476;13.316;2024-01-07T14:34:50;4.90;;;3.30;;
6825;SDS011;3451;52.476;13.316;2024-01-07T14:37:17;5.47;;;3.00;;
6825;SDS011;3451;52.476;13.316;2024-01-07T14:39:44;6.77;;;3.63;;
6825;SDS011;3451;52.476;13.316;2024-01-07T14:42:11;5.17;;;3.30;;
6825;SDS011;3451;52.476;13.316;2024-01-07T14:44:38;10.00;;;5.13;;
6825;SDS011;3451;52.476;13.316;2024-01-07T14:47:15;9.00;;;4.50;;
6825;SDS011;3451;52.476;13.316;2024-01-07T14:49:42;7.17;;;3.70;;
6825;SDS011;3451;52.476;13.316;2024-01-07T14:52:09;5.63;;;3.20;;
6825;SDS011;3451;52.476;13.316;2024-01-07T14:54:35;4.93;;;3.30;;
6825;SDS011;3451;52.476;13.316;2024-01-07T14:57:04;5.30;;;3.33;;
6825;SDS011;3451;52.476;13.316;2024-01-07T14:59:30;5.40;;;3.23;;
6825;SDS011;3451;52.476;13.316;2024-01-07T15:01:57;6.00;;;3.67;;
6825;SDS011;3451;52.476;13.316;2024-01-07T15:04:23;6.60;;;3.73;;